createdAt,value
2022-11-22T06:30:28.155Z,5.70
2022-11-22T06:32:56.828Z,5.70
2022-11-22T06:35:23.990Z,5.70
2022-11-22T06:37:54.908Z,5.70
2022-11-22T06:40:24.701Z,5.70
2022-11-22T06:42:52.127Z,5.70
2022-11-22T06:45:19.268Z,5.90
2022-11-22T06:47:46.390Z,5.50
2022-11-22T06:50:18.813Z,5.60
2022-11-22T06:52:52.695Z,5.60
2022-11-22T06:55:48.471Z,5.60
2022-11-22T06:58:07.396Z,5.60
2022-11-22T07:00:34.864Z,5.60
2022-11-22T07:03:03.649Z,5.70
2022-11-22T07:05:31.056Z,5.70
2022-11-22T07:08:05.454Z,5.80
2022-11-22T07:10:37.071Z,5.80
2022-11-22T07:13:04.560Z,5.80
2022-11-22T07:15:31.780Z,5.90
2022-11-22T07:17:59.130Z,5.90
2022-11-22T07:20:26.488Z,6.00
2022-11-22T07:22:53.845Z,5.90
2022-11-22T07:25:21.573Z,6.00
2022-11-22T07:27:49.354Z,5.90
2022-11-22T07:30:16.840Z,6.00
2022-11-22T07:32:50.296Z,6.00
2022-11-22T07:35:18.054Z,6.00
2022-11-22T07:37:45.380Z,6.00
2022-11-22T07:40:13.189Z,6.00
2022-11-22T07:42:40.618Z,6.10
2022-11-22T07:45:08.662Z,6.10
2022-11-22T07:47:36.080Z,6.20
2022-11-22T07:50:04.031Z,6.20
2022-11-22T07:52:32.323Z,6.20
2022-11-22T07:54:59.897Z,6.20
2022-11-22T07:57:28.208Z,6.20
2022-11-22T07:59:55.671Z,6.20
2022-11-22T08:02:23.776Z,6.20
2022-11-22T08:04:51.657Z,6.20
2022-11-22T08:07:19.431Z,6.30
2022-11-22T08:09:46.720Z,6.30
2022-11-22T08:12:14.104Z,6.40
2022-11-22T08:14:41.989Z,6.40
2022-11-22T08:17:10.031Z,6.60
2022-11-22T08:19:37.684Z,6.70
2022-11-22T08:22:07.915Z,6.70
2022-11-22T08:24:35.420Z,6.40
2022-11-22T08:27:02.893Z,6.90
2022-11-22T08:29:30.824Z,6.80
2022-11-22T08:31:58.327Z,6.80
2022-11-22T08:34:25.930Z,6.80
2022-11-22T08:36:53.220Z,6.80
2022-11-22T08:39:22.276Z,6.90
2022-11-22T08:41:51.841Z,6.90
2022-11-22T08:44:19.174Z,6.90
2022-11-22T08:46:46.779Z,7.00
2022-11-22T08:49:14.248Z,7.10
2022-11-22T08:51:44.989Z,7.00
2022-11-22T08:54:21.667Z,7.20
2022-11-22T08:56:50.428Z,7.20
2022-11-22T08:59:18.223Z,8.70
2022-11-22T09:01:46.065Z,7.30
2022-11-22T09:04:14.823Z,8.10
2022-11-22T09:09:37.357Z,7.40
2022-11-22T09:12:05.736Z,7.30
2022-11-22T09:14:35.256Z,7.40
2022-11-22T09:17:03.369Z,7.50
2022-11-22T09:19:32.045Z,7.60
2022-11-22T09:22:00.466Z,7.70
2022-11-22T09:24:28.191Z,7.80
2022-11-22T09:26:55.630Z,7.80
2022-11-22T09:29:24.165Z,7.80
2022-11-22T09:31:52.679Z,7.60
2022-11-22T09:34:21.206Z,7.70
2022-11-22T09:36:49.025Z,7.70
2022-11-22T09:39:16.926Z,7.70
2022-11-22T09:42:07.410Z,6.50
2022-11-22T09:45:04.563Z,7.80
2022-11-22T09:47:45.686Z,7.90
2022-11-22T09:50:52.061Z,7.90
2022-11-22T09:53:53.231Z,7.80
2022-11-22T09:56:24.409Z,7.50
2022-11-22T09:59:02.088Z,9.00
2022-11-22T10:01:53.448Z,7.80
2022-11-22T10:04:33.343Z,8.10
2022-11-22T10:07:15.759Z,7.20
2022-11-22T10:10:03.165Z,8.00
2022-11-22T10:12:49.671Z,8.00
2022-11-22T10:15:39.455Z,8.00
2022-11-22T10:18:22.838Z,8.20
2022-11-22T10:20:50.500Z,8.30
2022-11-22T10:23:21.590Z,8.80
2022-11-22T10:26:14.858Z,8.40
2022-11-22T10:29:07.389Z,8.10
2022-11-22T10:37:40.627Z,8.40
2022-11-22T10:44:02.318Z,8.40
2022-11-22T10:49:29.058Z,8.50
2022-11-22T10:52:06.777Z,7.10
2022-11-22T10:54:56.451Z,8.40
2022-11-22T10:57:45.914Z,8.80
2022-11-22T11:00:22.136Z,8.80
2022-11-22T11:03:16.755Z,8.50
2022-11-22T11:09:42.409Z,8.90
2022-11-22T11:11:42.224Z,9.70
2022-11-22T11:14:30.700Z,8.90
2022-11-22T11:17:00.072Z,8.80
2022-11-22T11:19:32.236Z,8.80
2022-11-22T11:24:52.160Z,8.80
2022-11-22T11:27:31.906Z,9.00
2022-11-22T11:32:55.989Z,9.10
2022-11-22T11:35:29.558Z,10.60
2022-11-22T11:38:00.416Z,8.90
2022-11-22T11:40:36.410Z,8.90
2022-11-22T11:43:27.709Z,8.60
2022-11-22T11:46:16.225Z,7.70
2022-11-22T11:48:44.198Z,8.80
2022-11-22T11:54:05.619Z,8.80
2022-11-22T11:56:54.897Z,8.80
2022-11-22T11:59:44.287Z,7.90
2022-11-22T12:02:25.032Z,7.60
2022-11-22T12:04:56.703Z,7.10
2022-11-22T12:07:27.218Z,8.50
2022-11-22T12:09:55.965Z,8.50
2022-11-22T12:12:45.161Z,8.40
2022-11-22T12:15:41.248Z,8.40
2022-11-22T12:18:27.493Z,8.50
2022-11-22T12:21:20.779Z,8.50
2022-11-22T12:24:42.831Z,8.60
2022-11-22T12:26:58.457Z,8.60
2022-11-22T12:29:25.945Z,8.70
2022-11-22T12:32:07.109Z,8.70
2022-11-22T12:34:43.594Z,8.50
2022-11-22T12:37:20.560Z,8.40
2022-11-22T12:39:55.834Z,8.50
2022-11-22T12:42:32.265Z,8.40
2022-11-22T12:45:07.753Z,8.30
2022-11-22T12:47:45.601Z,8.30
2022-11-22T12:50:37.111Z,8.30
2022-11-22T12:53:32.019Z,8.40
2022-11-22T13:02:37.857Z,8.40
2022-11-22T13:05:25.848Z,8.50
2022-11-22T13:08:17.729Z,8.40
2022-11-22T13:11:25.355Z,8.60
2022-11-22T13:13:59.361Z,8.00
2022-11-22T13:16:31.543Z,8.60
2022-11-22T13:19:04.140Z,8.70
2022-11-22T13:22:12.036Z,8.70
2022-11-22T13:25:19.412Z,8.60
2022-11-22T13:27:50.562Z,8.50
2022-11-22T13:30:23.461Z,8.50
2022-11-22T13:32:53.574Z,8.60
2022-11-22T13:38:14.880Z,8.60
2022-11-22T13:40:47.194Z,8.50
2022-11-22T13:43:22.718Z,8.40
2022-11-22T13:45:52.898Z,8.40
2022-11-22T13:48:42.740Z,8.40
2022-11-22T13:51:15.535Z,8.40
2022-11-22T13:53:49.704Z,8.30
2022-11-22T14:07:13.152Z,8.10
2022-11-22T14:13:04.509Z,7.90
2022-11-22T14:18:41.061Z,7.80
2022-11-22T14:21:33.879Z,6.50
2022-11-22T14:24:15.310Z,7.20
2022-11-22T14:26:58.872Z,7.80
2022-11-22T14:32:53.979Z,7.80
2022-11-22T14:35:29.484Z,7.80
2022-11-22T14:38:21.784Z,7.80
2022-11-22T14:40:49.323Z,7.70
2022-11-22T14:43:39.912Z,7.60
2022-11-22T14:46:51.156Z,7.70
2022-11-22T14:49:33.315Z,7.70
2022-11-22T14:52:01.615Z,7.40
2022-11-22T14:54:38.861Z,7.60
2022-11-22T14:57:12.593Z,7.60
2022-11-22T14:59:58.264Z,7.60
2022-11-22T15:03:05.300Z,7.50
2022-11-22T15:09:17.856Z,7.50
2022-11-22T15:09:20.276Z,7.50
2022-11-22T15:12:15.814Z,7.50
2022-11-22T15:57:27.950Z,7.40
2022-11-22T15:59:56.264Z,7.40
2022-11-22T16:02:27.514Z,7.50
2022-11-22T16:06:06.152Z,7.40
2022-11-22T16:07:51.833Z,7.30
2022-11-22T16:13:24.216Z,7.30
2022-11-22T16:16:14.029Z,7.30
2022-11-22T16:18:43.120Z,7.20
2022-11-22T16:24:11.583Z,7.10
2022-11-22T16:26:39.537Z,7.00
2022-11-22T16:29:31.212Z,7.00
2022-11-22T16:32:17.676Z,7.00
2022-11-22T16:34:44.962Z,6.90
2022-11-22T16:37:33.116Z,6.90
2022-11-22T16:40:06.215Z,6.80
2022-11-22T16:42:34.017Z,6.90
2022-11-22T16:45:04.347Z,6.90
2022-11-22T16:47:31.809Z,6.90
2022-11-22T16:49:59.023Z,6.90
2022-11-22T16:52:26.241Z,6.90
2022-11-22T16:54:53.407Z,6.90
2022-11-22T16:57:20.808Z,7.00
2022-11-22T16:59:47.962Z,6.90
